Time;durP1;ratioP1;P1;durP2;ratioP2;P2;SDS_P1;SDS_P2;PMS_P1;PMS_P2;Temp;Humidity;BMP_temperature;BMP_pressure;BME280_temperature;BME280_humidity;BME280_pressure;Samples;Min_cycle;Max_cycle;Signal;HPM_P1;HPM_P2
2021/05/27 00:00:21;;;;;;;8.35;1.70;;;14.60;99.90;;;;;;4950082;28;20035;-74
2021/05/27 00:02:47;;;;;;;5.18;1.10;;;14.60;99.90;;;;;;4949020;29;20031;-75
2021/05/27 00:05:16;;;;;;;4.88;1.40;;;14.60;99.90;;;;;;4949807;29;20134;-74
2021/05/27 00:07:42;;;;;;;5.97;1.40;;;14.60;99.90;;;;;;4963455;28;20494;-75
2021/05/27 00:10:11;;;;;;;6.35;1.73;;;14.60;99.90;;;;;;4950280;28;20050;-75
2021/05/27 00:12:36;;;;;;;6.30;1.15;;;14.60;99.90;;;;;;4948738;28;20385;-75
2021/05/27 00:15:04;;;;;;;7.90;1.25;;;14.60;99.90;;;;;;4950415;28;20043;-75
2021/05/27 00:17:30;;;;;;;8.27;1.73;;;14.60;99.90;;;;;;4955401;28;20389;-75
2021/05/27 00:19:56;;;;;;;7.90;1.45;;;14.50;99.90;;;;;;4952164;28;20039;-75
2021/05/27 00:22:21;;;;;;;7.47;1.55;;;14.50;99.90;;;;;;4947900;28;20035;-74
2021/05/27 00:24:47;;;;;;;7.05;1.40;;;14.60;99.90;;;;;;4953760;28;20188;-75
2021/05/27 00:27:13;;;;;;;5.47;1.55;;;14.60;99.90;;;;;;4967592;28;20065;-74
2021/05/27 00:29:39;;;;;;;6.90;1.33;;;14.50;99.90;;;;;;4953901;28;20049;-74
2021/05/27 00:32:05;;;;;;;6.82;1.60;;;14.40;99.90;;;;;;4950487;28;20063;-74
2021/05/27 00:34:31;;;;;;;9.95;1.20;;;14.40;99.90;;;;;;4953592;28;20043;-75
2021/05/27 00:36:56;;;;;;;8.18;1.70;;;14.50;99.90;;;;;;4951857;28;20034;-74
2021/05/27 00:39:22;;;;;;;6.38;1.45;;;14.50;99.90;;;;;;4952185;28;20733;-75
2021/05/27 00:41:48;;;;;;;8.38;1.63;;;14.50;99.90;;;;;;4934230;29;20561;-75
2021/05/27 00:44:29;;;;;;;5.05;1.45;;;14.50;99.90;;;;;;4954879;28;20074;-74
2021/05/27 00:46:58;;;;;;;7.63;1.40;;;14.50;99.90;;;;;;4940639;29;20054;-75
2021/05/27 00:49:24;;;;;;;5.63;1.38;;;14.40;99.90;;;;;;4933726;28;20118;-75
2021/05/27 00:51:50;;;;;;;6.88;1.15;;;14.50;99.90;;;;;;4934450;29;20042;-74
2021/05/27 00:54:18;;;;;;;5.40;1.33;;;14.40;99.90;;;;;;4950641;28;20416;-74
2021/05/27 00:56:45;;;;;;;6.65;1.10;;;14.40;99.90;;;;;;4953436;28;20669;-75
2021/05/27 00:59:11;;;;;;;4.30;1.08;;;14.40;99.90;;;;;;4952559;28;20055;-74
2021/05/27 01:01:37;;;;;;;5.32;1.38;;;14.40;99.90;;;;;;4952863;29;20074;-74
2021/05/27 01:04:03;;;;;;;4.95;1.23;;;14.50;99.90;;;;;;4952672;28;20031;-75
2021/05/27 01:06:29;;;;;;;5.35;1.40;;;14.50;99.90;;;;;;4952961;28;20062;-75
2021/05/27 01:08:55;;;;;;;5.85;1.40;;;14.50;99.90;;;;;;4950973;28;20131;-74
2021/05/27 01:11:22;;;;;;;7.15;1.30;;;14.50;99.90;;;;;;4953129;28;20145;-75
2021/05/27 01:13:48;;;;;;;5.05;1.10;;;14.60;99.90;;;;;;4961634;28;20092;-74
2021/05/27 01:16:16;;;;;;;8.15;1.65;;;14.60;99.90;;;;;;4948674;28;20055;-75
2021/05/27 01:18:41;;;;;;;8.32;2.05;;;14.50;99.90;;;;;;4944012;28;20135;-74
2021/05/27 01:21:07;;;;;;;4.20;1.10;;;14.50;99.90;;;;;;4952438;28;20126;-75
2021/05/27 01:23:33;;;;;;;7.40;1.63;;;14.40;99.90;;;;;;4951782;28;20028;-74
2021/05/27 01:26:00;;;;;;;5.03;1.52;;;14.40;99.90;;;;;;4953052;28;20075;-75
2021/05/27 01:28:30;;;;;;;4.25;1.20;;;14.40;99.90;;;;;;4952795;28;20502;-74
2021/05/27 01:30:56;;;;;;;4.45;0.93;;;14.40;99.90;;;;;;4952961;28;20845;-74
2021/05/27 01:33:22;;;;;;;6.35;1.08;;;14.40;99.90;;;;;;4951517;28;20035;-75
2021/05/27 01:35:48;;;;;;;5.53;1.00;;;14.40;99.90;;;;;;4952451;28;20465;-74
2021/05/27 01:38:21;;;;;;;6.85;1.50;;;14.40;99.90;;;;;;4966560;28;20090;-74
2021/05/27 01:40:48;;;;;;;7.35;1.38;;;14.40;99.90;;;;;;4952750;28;20043;-74
2021/05/27 01:43:14;;;;;;;5.93;0.90;;;14.20;99.90;;;;;;4966716;28;20034;-74
2021/05/27 01:45:41;;;;;;;7.10;1.10;;;14.10;99.90;;;;;;4951808;28;20560;-75
2021/05/27 01:48:07;;;;;;;5.10;0.85;;;14.10;99.90;;;;;;4950928;29;20086;-74
2021/05/27 01:50:33;;;;;;;5.53;0.70;;;14.10;99.90;;;;;;4952071;28;20050;-75
2021/05/27 01:53:01;;;;;;;4.28;1.00;;;14.10;99.90;;;;;;4950828;28;20119;-74
2021/05/27 01:55:27;;;;;;;3.17;0.82;;;14.10;99.90;;;;;;4948396;28;20047;-75
2021/05/27 01:57:55;;;;;;;4.38;0.93;;;13.90;99.90;;;;;;4952229;28;20019;-75
2021/05/27 02:00:21;;;;;;;5.18;0.80;;;14.00;99.90;;;;;;4951350;28;20067;-74
2021/05/27 02:02:47;;;;;;;3.65;0.80;;;14.00;99.90;;;;;;4947404;28;20071;-74
2021/05/27 02:05:13;;;;;;;4.60;1.23;;;13.90;99.90;;;;;;4949889;29;20816;-74
2021/05/27 02:07:39;;;;;;;5.15;0.95;;;14.00;99.90;;;;;;4950767;29;20377;-74
2021/05/27 02:10:06;;;;;;;3.55;1.00;;;14.00;99.90;;;;;;4951181;28;20043;-75
2021/05/27 02:12:32;;;;;;;4.25;1.05;;;14.00;99.90;;;;;;4951559;28;20062;-75
2021/05/27 02:14:57;;;;;;;3.10;0.57;;;14.10;99.90;;;;;;4960543;28;20073;-75
2021/05/27 02:17:23;;;;;;;3.20;0.80;;;14.00;99.90;;;;;;4971132;28;20090;-74
2021/05/27 02:19:49;;;;;;;2.92;0.70;;;14.10;99.90;;;;;;4961913;28;20500;-74
2021/05/27 02:22:14;;;;;;;3.75;0.95;;;14.00;99.90;;;;;;4951584;29;20073;-74
2021/05/27 02:24:40;;;;;;;5.30;0.73;;;14.00;99.90;;;;;;4950910;28;20051;-75
2021/05/27 02:27:06;;;;;;;3.45;0.75;;;14.10;99.90;;;;;;4952146;28;20041;-75
2021/05/27 02:29:32;;;;;;;7.88;0.93;;;14.00;99.90;;;;;;4950135;28;20380;-75
2021/05/27 02:31:58;;;;;;;2.15;0.50;;;14.10;99.90;;;;;;4947298;28;20040;-75
2021/05/27 02:34:23;;;;;;;2.47;0.70;;;14.10;99.90;;;;;;4949278;28;20941;-75
2021/05/27 02:36:49;;;;;;;5.47;0.80;;;14.10;99.90;;;;;;4953401;28;20087;-75
2021/05/27 02:39:16;;;;;;;6.38;0.80;;;14.10;99.90;;;;;;4951106;28;20456;-75
2021/05/27 02:41:41;;;;;;;6.43;1.00;;;14.10;99.90;;;;;;4956882;28;20078;-74
2021/05/27 02:44:08;;;;;;;5.20;1.00;;;14.10;99.90;;;;;;4964004;28;20034;-74
2021/05/27 02:46:33;;;;;;;8.63;1.25;;;14.00;99.90;;;;;;4950744;28;20058;-75
2021/05/27 02:48:59;;;;;;;10.18;1.10;;;14.00;99.90;;;;;;4951132;29;20035;-74
2021/05/27 02:51:25;;;;;;;5.80;0.88;;;13.90;99.90;;;;;;4949729;28;20054;-74
2021/05/27 02:53:51;;;;;;;6.13;1.13;;;13.90;99.90;;;;;;4951213;28;20031;-74
2021/05/27 02:56:16;;;;;;;4.78;1.10;;;13.90;99.90;;;;;;4950442;28;20097;-75
2021/05/27 02:58:43;;;;;;;4.85;0.93;;;13.80;99.90;;;;;;4947866;28;20028;-75
2021/05/27 03:01:10;;;;;;;4.28;0.98;;;13.80;99.90;;;;;;4938480;28;20588;-74
2021/05/27 03:03:36;;;;;;;6.80;1.00;;;13.80;99.90;;;;;;4951240;28;20729;-74
2021/05/27 03:06:02;;;;;;;4.50;0.95;;;13.80;99.90;;;;;;4951365;28;20042;-75
2021/05/27 03:08:28;;;;;;;5.07;1.00;;;13.80;99.90;;;;;;4950655;28;20027;-74
2021/05/27 03:10:54;;;;;;;7.65;1.10;;;13.80;99.90;;;;;;4950512;28;20035;-75
2021/05/27 03:13:20;;;;;;;7.43;0.95;;;13.90;99.90;;;;;;4951285;28;20082;-75
2021/05/27 03:15:45;;;;;;;6.00;1.00;;;13.90;99.90;;;;;;4951269;28;20576;-75
2021/05/27 03:18:11;;;;;;;3.70;1.15;;;13.90;99.90;;;;;;4951429;28;20027;-74
2021/05/27 03:20:38;;;;;;;5.60;1.40;;;13.90;99.90;;;;;;4964155;28;20045;-75
2021/05/27 03:23:04;;;;;;;6.38;1.48;;;13.90;99.90;;;;;;4951094;28;20548;-74
2021/05/27 03:25:31;;;;;;;8.20;1.67;;;13.80;99.90;;;;;;4952212;28;20454;-75
2021/05/27 03:27:57;;;;;;;6.47;1.33;;;13.80;99.90;;;;;;4950193;28;20027;-74
2021/05/27 03:30:23;;;;;;;6.03;1.42;;;13.80;99.90;;;;;;4950012;29;20054;-75
2021/05/27 03:32:49;;;;;;;3.40;1.00;;;13.70;99.90;;;;;;4950755;28;20401;-74
2021/05/27 03:35:15;;;;;;;3.95;1.20;;;13.70;99.90;;;;;;4949432;28;20051;-74
2021/05/27 03:37:41;;;;;;;4.07;1.10;;;13.60;99.90;;;;;;4950437;28;20110;-74
2021/05/27 03:42:41;;;;;;;6.25;1.45;;;13.60;99.90;;;;;;4964088;28;20027;-74
2021/05/27 03:45:09;;;;;;;4.80;1.05;;;13.50;99.90;;;;;;4970010;28;20051;-75
2021/05/27 03:47:35;;;;;;;5.47;1.35;;;13.60;99.90;;;;;;4949890;28;20036;-74
2021/05/27 03:50:01;;;;;;;5.85;1.17;;;13.60;99.90;;;;;;4951488;28;20047;-74
2021/05/27 03:52:26;;;;;;;5.78;1.63;;;13.50;99.90;;;;;;4953818;28;20027;-74
2021/05/27 03:54:52;;;;;;;7.10;1.45;;;13.50;99.90;;;;;;4954488;28;20043;-75
2021/05/27 03:57:18;;;;;;;5.78;1.23;;;13.50;99.90;;;;;;4954312;28;20027;-74
2021/05/27 04:02:27;;;;;;;8.35;1.95;;;13.60;99.90;;;;;;4959630;28;20069;-75
2021/05/27 04:07:37;;;;;;;4.45;1.40;;;13.50;99.90;;;;;;4961607;28;20613;-74
2021/05/27 04:10:04;;;;;;;6.07;1.75;;;13.40;99.90;;;;;;4957244;28;20043;-75
2021/05/27 04:12:45;;;;;;;5.28;1.10;;;13.40;99.90;;;;;;4954077;28;20062;-75
2021/05/27 04:15:20;;;;;;;6.20;1.20;;;13.50;99.90;;;;;;4960708;28;20038;-74
2021/05/27 04:17:46;;;;;;;7.45;1.67;;;13.50;99.90;;;;;;4958826;28;20474;-74
2021/05/27 04:20:13;;;;;;;8.10;1.70;;;13.50;99.90;;;;;;4953835;28;20600;-75
2021/05/27 04:22:43;;;;;;;3.22;1.05;;;13.50;99.90;;;;;;4951724;29;20461;-74
2021/05/27 04:25:11;;;;;;;4.18;1.50;;;13.60;99.90;;;;;;4953870;28;20059;-75
2021/05/27 04:27:37;;;;;;;5.55;1.10;;;13.60;99.90;;;;;;4961610;28;20760;-74
2021/05/27 04:30:18;;;;;;;6.32;1.63;;;13.60;99.90;;;;;;4971819;28;20081;-75
2021/05/27 04:33:06;;;;;;;4.88;1.33;;;13.70;99.90;;;;;;4961914;28;20038;-74
2021/05/27 04:35:35;;;;;;;6.70;1.15;;;13.70;99.90;;;;;;4968092;28;20043;-74
2021/05/27 04:38:15;;;;;;;15.38;1.42;;;13.70;99.90;;;;;;4962351;28;20102;-74
2021/05/27 04:40:46;;;;;;;12.35;1.60;;;13.60;99.90;;;;;;4942575;29;20087;-75
2021/05/27 04:43:13;;;;;;;6.47;1.30;;;13.70;99.90;;;;;;4952868;28;20024;-75
2021/05/27 04:45:39;;;;;;;8.15;1.80;;;13.70;99.90;;;;;;4953336;28;20055;-75
2021/05/27 04:48:09;;;;;;;9.32;1.90;;;13.70;99.90;;;;;;4952594;28;20027;-74
2021/05/27 04:50:36;;;;;;;14.35;2.42;;;13.70;99.90;;;;;;4953535;28;20067;-74
2021/05/27 04:53:03;;;;;;;8.55;2.08;;;13.70;99.90;;;;;;4947010;28;20020;-74
2021/05/27 04:55:29;;;;;;;10.95;1.92;;;13.70;99.90;;;;;;4952205;28;20473;-74
2021/05/27 04:57:54;;;;;;;12.05;2.45;;;13.70;99.90;;;;;;4942704;28;20055;-74
2021/05/27 05:00:22;;;;;;;7.70;1.95;;;13.70;99.90;;;;;;4953210;28;20446;-74
2021/05/27 05:02:48;;;;;;;7.20;1.80;;;13.60;99.90;;;;;;4952664;28;20023;-75
2021/05/27 05:05:15;;;;;;;11.18;2.53;;;13.60;99.90;;;;;;4950944;28;20049;-74
2021/05/27 05:07:42;;;;;;;12.63;2.35;;;13.70;99.90;;;;;;4951370;28;20080;-75
2021/05/27 05:10:10;;;;;;;9.18;2.65;;;13.70;99.90;;;;;;4940798;29;20117;-75
2021/05/27 05:15:36;;;;;;;11.27;3.00;;;13.90;99.90;;;;;;4955587;28;20071;-75
2021/05/27 05:18:04;;;;;;;10.43;2.25;;;14.00;99.90;;;;;;4968761;28;20041;-75
2021/05/27 05:20:36;;;;;;;7.80;2.17;;;14.10;99.90;;;;;;4964029;28;20038;-75
2021/05/27 05:23:03;;;;;;;14.70;2.63;;;14.10;99.90;;;;;;4949912;28;20100;-75
2021/05/27 05:25:30;;;;;;;7.90;2.80;;;14.20;99.90;;;;;;4950549;28;20043;-75
2021/05/27 05:27:56;;;;;;;14.40;2.95;;;14.40;99.90;;;;;;4951587;29;20050;-75
2021/05/27 05:30:23;;;;;;;9.85;2.17;;;14.60;99.90;;;;;;4952437;28;20047;-75
2021/05/27 05:32:49;;;;;;;8.07;2.33;;;14.80;99.90;;;;;;4948407;29;20043;-75
2021/05/27 05:35:17;;;;;;;8.23;1.98;;;14.80;99.90;;;;;;4941751;28;20043;-74
2021/05/27 05:37:42;;;;;;;9.32;2.45;;;14.90;99.90;;;;;;4952585;28;20101;-75
2021/05/27 05:40:11;;;;;;;7.55;2.33;;;15.10;99.90;;;;;;4951803;28;20079;-74
2021/05/27 05:42:40;;;;;;;13.65;2.50;;;15.10;99.90;;;;;;4950593;29;20031;-75
2021/05/27 05:45:07;;;;;;;9.68;2.70;;;15.10;99.90;;;;;;4952719;28;20378;-75
2021/05/27 05:47:33;;;;;;;12.55;2.60;;;15.40;99.90;;;;;;4955294;28;20091;-75
2021/05/27 05:49:59;;;;;;;11.07;2.60;;;15.70;99.90;;;;;;4957004;28;21701;-74
2021/05/27 05:52:24;;;;;;;9.82;3.05;;;15.90;99.90;;;;;;4952098;28;20066;-75
2021/05/27 05:54:50;;;;;;;10.70;3.35;;;16.40;99.90;;;;;;4939292;28;20072;-75
2021/05/27 05:57:16;;;;;;;10.48;2.50;;;16.80;99.90;;;;;;4952811;28;20082;-75
2021/05/27 05:59:42;;;;;;;11.05;3.15;;;17.20;99.90;;;;;;4944073;29;20035;-75
2021/05/27 06:02:08;;;;;;;13.18;2.60;;;17.50;99.90;;;;;;4942817;28;20082;-75
2021/05/27 06:04:33;;;;;;;13.27;3.03;;;17.30;99.90;;;;;;4939921;29;20122;-75
2021/05/27 06:06:59;;;;;;;13.60;3.15;;;17.40;99.90;;;;;;4949555;28;20582;-75
2021/05/27 06:09:25;;;;;;;8.25;2.50;;;17.60;99.90;;;;;;4947251;29;20729;-75
2021/05/27 06:11:54;;;;;;;13.35;2.80;;;17.90;99.90;;;;;;4940153;28;20034;-75
2021/05/27 06:14:20;;;;;;;6.70;2.83;;;18.10;99.90;;;;;;4941401;28;20035;-75
2021/05/27 06:16:46;;;;;;;8.35;3.15;;;18.30;99.90;;;;;;4958738;23;20472;-75
2021/05/27 06:19:13;;;;;;;7.50;2.25;;;18.50;99.90;;;;;;4988980;28;20034;-74
2021/05/27 06:21:38;;;;;;;8.95;2.58;;;18.70;99.90;;;;;;4984049;28;20030;-75
2021/05/27 06:24:05;;;;;;;7.95;2.40;;;18.50;99.90;;;;;;4987784;28;20026;-75
2021/05/27 06:26:31;;;;;;;11.63;2.97;;;18.80;99.90;;;;;;4988285;28;20030;-75
2021/05/27 06:28:57;;;;;;;10.00;2.90;;;18.60;99.90;;;;;;4988908;28;20030;-75
2021/05/27 06:31:23;;;;;;;8.70;2.25;;;18.60;99.90;;;;;;4989141;28;20061;-74
2021/05/27 06:33:49;;;;;;;11.23;2.63;;;18.70;99.90;;;;;;4990006;28;20049;-75
2021/05/27 06:36:15;;;;;;;6.20;1.90;;;18.60;99.90;;;;;;5005856;28;20085;-75
2021/05/27 06:38:41;;;;;;;6.55;2.10;;;18.30;99.90;;;;;;4986800;28;20444;-75
2021/05/27 06:41:07;;;;;;;7.82;2.42;;;18.40;99.90;;;;;;4988620;28;20046;-76
2021/05/27 06:43:33;;;;;;;9.38;2.63;;;19.10;99.90;;;;;;4988819;28;20204;-75
2021/05/27 06:45:59;;;;;;;7.55;1.92;;;19.60;99.90;;;;;;4976923;28;20042;-75
2021/05/27 06:48:25;;;;;;;7.95;1.98;;;19.90;99.90;;;;;;4986624;28;20038;-75
2021/05/27 06:50:51;;;;;;;7.50;2.15;;;20.20;99.90;;;;;;4988958;28;20034;-75
2021/05/27 06:53:17;;;;;;;10.52;2.20;;;20.20;99.10;;;;;;4985359;28;20384;-74
2021/05/27 06:55:45;;;;;;;7.25;2.30;;;19.10;99.60;;;;;;4989129;28;20046;-75
2021/05/27 06:58:11;;;;;;;8.00;2.25;;;18.40;99.90;;;;;;4986947;28;20662;-75
2021/05/27 07:00:37;;;;;;;5.57;1.83;;;18.40;99.90;;;;;;4986920;28;20379;-75
2021/05/27 07:03:05;;;;;;;7.28;2.42;;;18.70;99.90;;;;;;4972210;28;20413;-75
2021/05/27 07:05:30;;;;;;;5.72;2.20;;;18.70;99.30;;;;;;4977819;28;20038;-77
2021/05/27 07:07:59;;;;;;;6.25;1.52;;;18.70;99.90;;;;;;4988079;28;20136;-74
2021/05/27 07:10:24;;;;;;;6.97;2.03;;;19.00;99.90;;;;;;4986986;28;20038;-74
2021/05/27 07:12:53;;;;;;;6.05;2.42;;;18.30;99.90;;;;;;4979533;28;20101;-74
2021/05/27 07:15:20;;;;;;;5.47;2.50;;;18.20;99.90;;;;;;4988159;28;20027;-75
2021/05/27 07:17:46;;;;;;;12.73;2.13;;;18.50;99.90;;;;;;4978570;28;20058;-74
2021/05/27 07:20:13;;;;;;;6.97;2.28;;;18.40;99.90;;;;;;5002354;28;20030;-75
2021/05/27 07:22:38;;;;;;;11.38;2.58;;;18.90;99.90;;;;;;4988091;28;20113;-75
2021/05/27 07:25:05;;;;;;;6.85;2.28;;;19.10;99.50;;;;;;4979085;28;20110;-75
2021/05/27 07:27:31;;;;;;;9.60;2.58;;;19.50;99.90;;;;;;4983564;28;20038;-74
2021/05/27 07:29:57;;;;;;;6.47;2.10;;;19.10;99.40;;;;;;4981006;28;20041;-75
2021/05/27 07:32:23;;;;;;;12.38;2.75;;;19.10;99.80;;;;;;4978631;28;20034;-75
2021/05/27 07:34:48;;;;;;;9.80;2.78;;;18.80;99.50;;;;;;4988851;28;20048;-75
2021/05/27 07:37:14;;;;;;;8.68;2.47;;;18.70;99.90;;;;;;4984626;28;20035;-75
2021/05/27 07:39:40;;;;;;;14.40;2.75;;;19.20;99.90;;;;;;4986135;28;20179;-75
2021/05/27 07:42:06;;;;;;;8.80;2.33;;;19.00;99.90;;;;;;4987691;28;20030;-75
2021/05/27 07:44:35;;;;;;;7.22;2.25;;;18.70;99.90;;;;;;4987042;28;20037;-75
2021/05/27 07:47:02;;;;;;;10.38;2.00;;;18.70;99.90;;;;;;4982071;28;20030;-74
2021/05/27 07:49:28;;;;;;;4.70;1.67;;;18.90;99.90;;;;;;4980030;28;20708;-74
2021/05/27 07:51:55;;;;;;;6.00;2.00;;;18.80;99.90;;;;;;4983959;28;20031;-75
2021/05/27 07:54:20;;;;;;;8.25;2.00;;;18.30;99.90;;;;;;4983823;28;20104;-74
2021/05/27 07:56:46;;;;;;;6.15;1.77;;;17.90;99.90;;;;;;4986431;28;20488;-75
2021/05/27 07:59:13;;;;;;;5.18;1.85;;;18.00;99.90;;;;;;4987112;28;20018;-75
2021/05/27 08:01:40;;;;;;;9.25;2.20;;;18.30;99.90;;;;;;4996898;28;20026;-75
2021/05/27 08:04:05;;;;;;;7.75;2.55;;;18.80;99.90;;;;;;4985686;28;20466;-74
2021/05/27 08:06:31;;;;;;;7.05;2.30;;;19.50;99.90;;;;;;4988146;28;20109;-74
2021/05/27 08:08:57;;;;;;;5.65;2.03;;;18.90;99.90;;;;;;4976308;28;20121;-75
2021/05/27 08:11:22;;;;;;;8.52;2.47;;;19.00;99.90;;;;;;4986902;28;20069;-74
2021/05/27 08:13:48;;;;;;;7.80;2.60;;;19.10;99.90;;;;;;4988588;28;20026;-75
2021/05/27 08:16:14;;;;;;;6.10;2.03;;;19.20;99.90;;;;;;4987722;28;20034;-75
2021/05/27 08:18:40;;;;;;;8.10;2.25;;;19.40;99.30;;;;;;4984366;28;20061;-75
2021/05/27 08:21:08;;;;;;;8.38;2.40;;;19.20;99.30;;;;;;4975742;28;20042;-75
2021/05/27 08:23:34;;;;;;;6.75;2.45;;;18.70;99.50;;;;;;4985326;28;20026;-75
2021/05/27 08:26:00;;;;;;;6.53;2.35;;;18.90;99.10;;;;;;4986709;28;20579;-75
2021/05/27 08:28:26;;;;;;;7.13;2.40;;;18.60;99.70;;;;;;4987519;28;20035;-74
2021/05/27 08:30:52;;;;;;;10.20;2.42;;;18.50;99.90;;;;;;4983772;28;20045;-74
2021/05/27 08:33:17;;;;;;;10.18;2.60;;;18.70;99.90;;;;;;4986165;28;20038;-74
2021/05/27 08:35:43;;;;;;;7.93;2.88;;;18.70;99.90;;;;;;4980681;28;20045;-74
2021/05/27 08:38:08;;;;;;;9.73;2.83;;;18.80;99.60;;;;;;4988452;28;20046;-75
2021/05/27 08:40:34;;;;;;;8.23;3.10;;;18.60;99.10;;;;;;4990255;28;20027;-74
2021/05/27 08:43:00;;;;;;;13.23;2.70;;;18.90;99.20;;;;;;4990894;28;20038;-75
2021/05/27 08:45:29;;;;;;;13.13;3.28;;;18.70;99.30;;;;;;4982211;28;20401;-74
2021/05/27 08:47:55;;;;;;;8.38;2.80;;;18.90;98.80;;;;;;4990687;28;20053;-74
2021/05/27 08:50:29;;;;;;;6.85;2.75;;;18.80;98.60;;;;;;4988582;28;20030;-74
2021/05/27 08:52:56;;;;;;;9.80;3.20;;;18.40;98.50;;;;;;4987947;28;20470;-74
2021/05/27 08:55:22;;;;;;;8.18;2.75;;;18.70;98.70;;;;;;4990343;28;20037;-74
2021/05/27 08:57:48;;;;;;;11.18;2.92;;;18.90;99.00;;;;;;4987358;28;20043;-74
2021/05/27 09:00:14;;;;;;;11.32;3.05;;;18.90;98.00;;;;;;4989459;28;20705;-73
2021/05/27 09:03:06;;;;;;;8.02;2.50;;;18.80;98.60;;;;;;4979493;28;20034;-75
2021/05/27 09:05:36;;;;;;;;;;;18.90;98.90;;;;;;4985727;28;20133;-74
2021/05/27 09:08:22;;;;;;;8.63;2.97;;;19.10;98.50;;;;;;4989712;28;19949;-74
2021/05/27 09:10:48;;;;;;;9.82;2.92;;;19.20;98.50;;;;;;4988032;28;20052;-73
2021/05/27 09:13:17;;;;;;;5.65;2.28;;;19.20;98.80;;;;;;4987691;28;20042;-74
2021/05/27 09:15:44;;;;;;;11.98;3.03;;;19.10;97.90;;;;;;4985677;28;20049;-74
2021/05/27 09:18:10;;;;;;;8.27;2.70;;;19.10;98.20;;;;;;4985688;28;20161;-73
2021/05/27 09:20:37;;;;;;;10.73;2.83;;;19.10;97.40;;;;;;5003966;28;20748;-74
2021/05/27 09:23:17;;;;;;;8.75;2.17;;;19.10;97.10;;;;;;4987044;28;20036;-74
2021/05/27 09:25:45;;;;;;;8.45;3.08;;;18.90;97.50;;;;;;4980569;28;20391;-74
2021/05/27 09:28:19;;;;;;;7.80;2.47;;;18.80;97.80;;;;;;4990371;28;20080;-74
2021/05/27 09:30:51;;;;;;;8.40;3.08;;;18.60;97.40;;;;;;4987356;28;20022;-74
2021/05/27 09:33:17;;;;;;;8.30;2.45;;;18.60;97.40;;;;;;4984077;28;20042;-75
2021/05/27 09:35:43;;;;;;;8.93;2.35;;;18.60;97.30;;;;;;4989058;28;20038;-74
2021/05/27 09:38:09;;;;;;;9.20;2.47;;;18.50;97.80;;;;;;4986322;28;20491;-74
2021/05/27 09:40:38;;;;;;;9.18;2.88;;;18.30;97.80;;;;;;4990738;28;20072;-74
2021/05/27 09:43:07;;;;;;;7.03;2.40;;;18.20;98.20;;;;;;4986514;28;20046;-74
2021/05/27 09:45:34;;;;;;;7.70;2.58;;;18.40;98.80;;;;;;4981632;28;20507;-74
2021/05/27 09:48:19;;;;;;;11.02;2.30;;;18.20;95.80;;;;;;4988840;28;20159;-74
2021/05/27 09:50:45;;;;;;;7.97;2.22;;;18.50;97.50;;;;;;4978792;28;20034;-73
2021/05/27 09:53:17;;;;;;;7.55;2.85;;;18.40;97.30;;;;;;4989667;28;20038;-74
2021/05/27 09:55:44;;;;;;;13.50;2.80;;;18.20;97.00;;;;;;4984241;28;20026;-74
2021/05/27 09:58:11;;;;;;;10.95;3.20;;;18.10;97.10;;;;;;4990405;28;20038;-74
2021/05/27 10:00:38;;;;;;;8.27;2.65;;;18.20;98.40;;;;;;5005135;28;20391;-73
2021/05/27 10:03:22;;;;;;;8.55;2.95;;;18.10;97.30;;;;;;4984194;28;20065;-74
2021/05/27 10:05:48;;;;;;;7.22;2.33;;;18.50;98.20;;;;;;4987220;28;20838;-74
2021/05/27 10:08:13;;;;;;;7.03;2.20;;;18.40;97.40;;;;;;4990367;28;20044;-74
2021/05/27 10:10:43;;;;;;;7.45;2.97;;;18.70;97.40;;;;;;4981869;28;20026;-74
2021/05/27 10:13:10;;;;;;;12.15;2.53;;;19.40;97.90;;;;;;4984574;28;20512;-76
2021/05/27 10:15:37;;;;;;;11.95;3.45;;;19.30;96.80;;;;;;4980340;28;20436;-76
2021/05/27 10:18:04;;;;;;;9.25;2.92;;;19.70;94.90;;;;;;4988982;28;20050;-74
2021/05/27 10:20:31;;;;;;;6.15;2.33;;;19.40;96.70;;;;;;4989077;28;20030;-76
2021/05/27 10:22:57;;;;;;;6.47;2.65;;;19.50;96.60;;;;;;4988059;28;20038;-74
2021/05/27 10:25:27;;;;;;;6.80;2.45;;;20.00;96.20;;;;;;4989020;28;20038;-74
2021/05/27 10:27:55;;;;;;;6.32;2.20;;;20.10;94.20;;;;;;4982095;28;20039;-73
2021/05/27 10:30:22;;;;;;;9.00;2.53;;;19.90;95.90;;;;;;4979456;28;20042;-74
2021/05/27 10:32:53;;;;;;;8.32;2.40;;;20.30;95.00;;;;;;5003974;28;20042;-74
2021/05/27 10:35:19;;;;;;;7.10;2.67;;;20.60;95.10;;;;;;4986435;28;20042;-74
2021/05/27 10:37:47;;;;;;;8.15;2.72;;;20.90;94.40;;;;;;4981880;28;20113;-74
2021/05/27 10:40:19;;;;;;;6.53;2.50;;;20.50;95.00;;;;;;4989257;28;20026;-74
2021/05/27 10:43:09;;;;;;;9.98;2.83;;;20.60;93.90;;;;;;4983488;28;20165;-75
2021/05/27 10:45:55;;;;;;;6.50;1.90;;;21.30;94.40;;;;;;4987250;28;20031;-74
2021/05/27 10:48:23;;;;;;;8.30;2.38;;;20.90;92.10;;;;;;4985853;28;20080;-75
2021/05/27 10:50:53;;;;;;;7.65;2.10;;;20.90;93.30;;;;;;4989237;28;20062;-74
2021/05/27 10:53:40;;;;;;;11.50;2.30;;;20.00;92.60;;;;;;4984854;28;20392;-75
2021/05/27 10:56:06;;;;;;;7.43;2.58;;;20.10;92.90;;;;;;4986247;28;20048;-74
2021/05/27 10:58:52;;;;;;;7.50;2.47;;;19.90;93.50;;;;;;4980742;28;20035;-74
2021/05/27 11:01:30;;;;;;;7.53;2.80;;;20.20;94.90;;;;;;4981139;28;20088;-74
2021/05/27 11:04:05;;;;;;;7.32;3.00;;;20.20;93.50;;;;;;4979694;28;20634;-74
2021/05/27 11:06:37;;;;;;;10.60;2.63;;;19.90;92.90;;;;;;4979382;28;20432;-74
2021/05/27 11:09:33;;;;;;;6.65;2.10;;;19.70;92.60;;;;;;4981632;28;20026;-74
2021/05/27 11:12:09;;;;;;;6.63;2.20;;;20.00;92.10;;;;;;4988052;28;20668;-73
2021/05/27 11:14:40;;;;;;;11.30;2.55;;;20.00;91.20;;;;;;4985498;28;20022;-74
2021/05/27 11:17:07;;;;;;;8.27;2.70;;;20.20;92.70;;;;;;4978867;28;20058;-74
2021/05/27 11:27:41;;;;;;;7.38;2.95;;;21.40;90.20;;;;;;4980039;28;20046;-74
2021/05/27 11:30:28;;;;;;;9.35;3.35;;;21.40;88.20;;;;;;4987567;28;20420;-74
2021/05/27 11:32:59;;;;;;;8.73;3.00;;;21.50;88.90;;;;;;4985636;28;20054;-76
2021/05/27 11:35:28;;;;;;;7.78;2.95;;;21.70;90.20;;;;;;4987088;28;20777;-74
2021/05/27 11:37:55;;;;;;;6.22;2.88;;;21.60;89.10;;;;;;4986636;28;20054;-73
2021/05/27 11:40:24;;;;;;;9.60;3.42;;;22.10;89.60;;;;;;4985897;28;20031;-74
2021/05/27 11:42:54;;;;;;;10.45;3.17;;;22.20;85.20;;;;;;4984008;28;20034;-74
2021/05/27 11:45:23;;;;;;;10.55;2.80;;;22.10;87.40;;;;;;4981122;28;20054;-74
2021/05/27 11:48:18;;;;;;;7.53;3.20;;;22.10;86.80;;;;;;4985482;28;20042;-74
2021/05/27 11:50:44;;;;;;;6.75;2.75;;;22.00;86.50;;;;;;4986254;28;20121;-73
2021/05/27 11:53:10;;;;;;;7.53;2.80;;;21.90;84.00;;;;;;4987809;28;20117;-74
2021/05/27 11:55:36;;;;;;;7.55;2.60;;;22.10;86.50;;;;;;4985334;28;20026;-74
2021/05/27 11:58:04;;;;;;;7.35;2.35;;;22.60;84.20;;;;;;4984790;28;20157;-74
2021/05/27 12:00:30;;;;;;;7.53;2.88;;;22.40;83.80;;;;;;4982043;28;20107;-74
2021/05/27 12:02:58;;;;;;;6.18;2.67;;;22.50;84.70;;;;;;4977639;28;20126;-74
2021/05/27 12:05:33;;;;;;;6.53;2.85;;;22.50;84.00;;;;;;4990180;28;20727;-74
2021/05/27 12:08:07;;;;;;;10.00;2.60;;;22.60;82.70;;;;;;4986790;28;20042;-74
2021/05/27 12:10:44;;;;;;;7.20;2.75;;;22.30;83.70;;;;;;4977405;28;20089;-74
2021/05/27 12:13:20;;;;;;;6.40;2.38;;;22.40;84.20;;;;;;4989018;28;20408;-74
2021/05/27 12:15:46;;;;;;;10.50;3.15;;;22.40;83.80;;;;;;4989381;28;20033;-73
2021/05/27 12:18:14;;;;;;;5.78;2.40;;;22.20;82.60;;;;;;4983887;28;20436;-74
2021/05/27 12:20:42;;;;;;;12.77;3.13;;;22.20;82.60;;;;;;4989239;28;20100;-73
2021/05/27 12:23:10;;;;;;;7.05;2.35;;;22.30;83.40;;;;;;4978356;28;20503;-73
2021/05/27 12:25:42;;;;;;;7.00;2.65;;;22.40;81.40;;;;;;4989769;28;20122;-73
2021/05/27 12:28:20;;;;;;;8.20;2.40;;;22.70;81.50;;;;;;4984919;28;20046;-74
2021/05/27 12:30:57;;;;;;;4.65;2.22;;;22.80;80.40;;;;;;4981043;28;20515;-74
2021/05/27 12:33:32;;;;;;;7.70;2.70;;;23.00;79.80;;;;;;4987698;28;20068;-73
2021/05/27 12:36:08;;;;;;;7.97;2.90;;;22.70;79.40;;;;;;4985869;28;20109;-74
2021/05/27 12:38:34;;;;;;;8.20;2.50;;;22.40;79.10;;;;;;4985463;28;20697;-74
2021/05/27 12:41:06;;;;;;;7.28;2.83;;;22.60;79.50;;;;;;4985559;28;20105;-73
2021/05/27 12:43:34;;;;;;;7.20;2.85;;;22.80;81.40;;;;;;4988540;28;20036;-74
2021/05/27 12:46:01;;;;;;;5.88;2.30;;;22.50;79.10;;;;;;4976141;28;20038;-74
2021/05/27 12:48:28;;;;;;;5.53;2.22;;;22.60;81.80;;;;;;4984445;28;20491;-74
2021/05/27 12:51:04;;;;;;;8.25;2.70;;;22.90;80.00;;;;;;4986180;28;20034;-73
2021/05/27 12:53:35;;;;;;;7.57;2.50;;;23.10;82.30;;;;;;4984082;28;20038;-74
2021/05/27 12:56:11;;;;;;;9.38;2.72;;;22.70;77.70;;;;;;4990461;28;20113;-74
2021/05/27 12:58:40;;;;;;;8.68;2.97;;;22.90;79.10;;;;;;4981676;28;20034;-74
2021/05/27 13:01:07;;;;;;;5.90;2.42;;;22.80;79.40;;;;;;4986720;28;20030;-76
2021/05/27 13:03:48;;;;;;;12.90;2.53;;;23.10;79.20;;;;;;4984721;28;20030;-74
2021/05/27 13:06:16;;;;;;;7.30;2.25;;;23.00;77.60;;;;;;4989084;28;20081;-73
2021/05/27 13:08:42;;;;;;;7.75;2.70;;;23.00;78.90;;;;;;4986128;28;20045;-76